createdAt,value
2023-01-15T00:01:55.120Z,24.70
2023-01-15T06:51:38.091Z,22.60
2023-01-15T06:54:05.971Z,22.90
2023-01-15T06:56:34.774Z,21.00
2023-01-15T06:59:03.183Z,19.90
2023-01-15T07:01:32.958Z,19.70
2023-01-15T07:04:00.065Z,19.60
2023-01-15T07:06:27.805Z,19.40
2023-01-15T07:08:56.429Z,18.60
2023-01-15T07:11:25.659Z,21.20
2023-01-15T07:14:05.447Z,19.60
2023-01-15T07:16:40.801Z,18.00
2023-01-15T07:19:14.602Z,17.10
2023-01-15T07:21:45.118Z,19.90
2023-01-15T07:24:23.495Z,17.50
2023-01-15T07:26:53.931Z,16.30
2023-01-15T07:29:25.102Z,19.00
2023-01-15T07:31:56.800Z,17.30
2023-01-15T07:34:32.250Z,17.30
2023-01-15T07:37:08.575Z,18.10
2023-01-15T07:39:38.196Z,18.70
2023-01-15T07:42:33.914Z,16.20
2023-01-15T07:48:40.583Z,16.60
2023-01-15T07:51:50.968Z,16.10
2023-01-15T07:54:20.567Z,15.20
2023-01-15T07:56:52.232Z,15.50
2023-01-15T07:59:33.596Z,15.30
2023-01-15T08:02:06.074Z,16.50
2023-01-15T08:04:37.516Z,15.40
2023-01-15T08:07:07.785Z,16.00
2023-01-15T08:09:37.209Z,15.30
2023-01-15T08:12:24.215Z,18.10
2023-01-15T08:18:12.194Z,13.40
2023-01-15T08:20:42.087Z,14.50
2023-01-15T08:23:11.662Z,15.70
2023-01-15T08:25:42.590Z,15.10
2023-01-15T08:28:18.293Z,13.70
2023-01-15T08:30:54.640Z,13.60
2023-01-15T08:33:23.133Z,15.00
2023-01-15T08:35:50.483Z,13.50
2023-01-15T08:38:20.618Z,14.80
2023-01-15T08:41:00.391Z,15.20
2023-01-15T08:43:37.287Z,14.60
2023-01-15T08:46:15.415Z,15.50
2023-01-15T08:48:42.714Z,14.70
2023-01-15T08:51:21.625Z,16.10
2023-01-15T08:53:50.828Z,16.00
2023-01-15T08:56:19.660Z,14.10
2023-01-15T08:58:51.447Z,15.40
2023-01-15T09:01:24.637Z,14.60
2023-01-15T09:04:03.275Z,13.90
2023-01-15T09:06:33.246Z,13.70
2023-01-15T09:09:05.816Z,13.60
2023-01-15T09:11:37.437Z,15.20
2023-01-15T09:14:09.013Z,17.40
2023-01-15T09:16:58.318Z,16.70
2023-01-15T09:19:27.593Z,15.70
2023-01-15T09:21:56.176Z,16.10
2023-01-15T09:24:23.772Z,16.30
2023-01-15T09:26:53.585Z,17.00
2023-01-15T09:29:23.388Z,17.20
2023-01-15T09:31:55.739Z,18.80
2023-01-15T09:34:25.110Z,18.90
2023-01-15T09:36:59.260Z,19.80
2023-01-15T09:39:30.743Z,18.70
2023-01-15T09:42:11.294Z,19.00
2023-01-15T09:44:51.167Z,20.10
2023-01-15T09:47:29.799Z,21.80
2023-01-15T09:50:06.738Z,19.50
2023-01-15T09:52:41.010Z,20.10
2023-01-15T09:55:33.660Z,23.10
2023-01-15T17:22:57.288Z,23.50
2023-01-15T17:25:53.149Z,27.10
2023-01-15T17:28:27.997Z,24.50
2023-01-15T17:31:02.345Z,23.50
2023-01-15T17:33:50.865Z,25.20
2023-01-15T17:36:31.460Z,25.90
2023-01-15T17:39:05.481Z,25.10
2023-01-15T17:41:39.016Z,25.10
2023-01-15T17:44:09.137Z,25.60
2023-01-15T17:46:38.278Z,23.10
2023-01-15T17:49:08.120Z,24.50
2023-01-15T17:51:37.211Z,24.20
2023-01-15T17:54:05.833Z,22.10
2023-01-15T17:56:55.312Z,24.50
2023-01-15T17:59:52.696Z,22.00
2023-01-15T18:02:45.931Z,24.10
2023-01-15T18:05:32.085Z,23.10
2023-01-15T18:08:05.577Z,25.00
2023-01-15T18:10:39.827Z,28.80
2023-01-15T18:13:10.332Z,29.70
2023-01-15T18:15:48.776Z,27.30
2023-01-15T18:18:19.916Z,25.70
2023-01-15T18:20:52.511Z,24.00
2023-01-15T18:23:22.673Z,31.30
2023-01-15T18:25:51.770Z,27.60
2023-01-15T18:28:19.651Z,25.70
2023-01-15T18:30:48.433Z,25.40
2023-01-15T18:33:16.313Z,24.20
2023-01-15T18:36:01.823Z,28.80
2023-01-15T18:38:39.673Z,27.50
2023-01-15T18:44:37.686Z,24.20
2023-01-15T18:47:13.205Z,26.90
2023-01-15T18:50:06.840Z,25.70
2023-01-15T18:52:50.367Z,26.60
2023-01-15T18:55:27.858Z,28.10
2023-01-15T18:57:55.799Z,26.70
2023-01-15T19:00:25.279Z,24.30
2023-01-15T19:02:53.239Z,26.40
2023-01-15T19:05:22.313Z,26.50
2023-01-15T19:07:52.702Z,29.40
2023-01-15T19:10:25.474Z,25.70
2023-01-15T19:12:54.496Z,21.20
2023-01-15T19:15:40.025Z,23.70
2023-01-15T19:18:28.811Z,23.20
2023-01-15T19:21:00.278Z,22.10
2023-01-15T19:23:28.704Z,19.60
2023-01-15T19:25:56.564Z,20.80
2023-01-15T19:28:26.280Z,19.70
2023-01-15T19:31:12.066Z,20.30
2023-01-15T19:33:40.283Z,21.50
2023-01-15T19:36:09.627Z,22.60
2023-01-15T19:38:44.645Z,22.80
2023-01-15T19:41:31.942Z,21.20
2023-01-15T19:44:17.842Z,24.20
2023-01-15T19:47:08.009Z,24.10
2023-01-15T19:49:56.397Z,25.30
2023-01-15T19:52:36.613Z,25.60
2023-01-15T19:55:07.971Z,24.60
2023-01-15T20:00:04.768Z,24.30
2023-01-15T20:02:33.970Z,25.80
2023-01-15T20:05:07.590Z,26.90
2023-01-15T20:07:35.106Z,25.40
2023-01-15T20:10:05.997Z,25.10
2023-01-15T20:12:53.030Z,21.40
2023-01-15T20:15:33.670Z,24.30
2023-01-15T20:18:00.981Z,27.40
2023-01-15T20:20:33.080Z,24.00
2023-01-15T20:23:00.883Z,24.30
2023-01-15T20:25:30.148Z,23.50
2023-01-15T20:28:08.946Z,21.70
2023-01-15T20:30:36.848Z,26.90
2023-01-15T20:33:06.561Z,21.80
2023-01-15T20:36:04.069Z,18.00
2023-01-15T20:38:37.004Z,17.00
2023-01-15T20:41:33.857Z,15.80
2023-01-15T20:44:27.572Z,20.40
2023-01-15T20:46:55.797Z,15.30
2023-01-15T20:49:27.867Z,16.30
2023-01-15T20:52:05.928Z,14.60
2023-01-15T20:54:39.829Z,19.80
2023-01-15T20:59:58.297Z,16.30
2023-01-15T21:02:27.465Z,18.40
2023-01-15T21:04:56.134Z,17.90
2023-01-15T21:07:26.376Z,18.20
2023-01-15T21:09:54.718Z,18.40
2023-01-15T21:12:23.287Z,18.30
2023-01-15T21:14:51.992Z,20.20
2023-01-15T21:17:20.078Z,23.60
2023-01-15T21:19:47.878Z,21.40
2023-01-15T21:22:17.023Z,19.40
2023-01-15T21:24:44.406Z,19.20
2023-01-15T21:27:14.645Z,17.70
2023-01-15T21:29:41.968Z,17.30
2023-01-15T21:32:09.680Z,16.50
2023-01-15T21:34:37.681Z,17.00
2023-01-15T21:37:06.628Z,17.50
2023-01-15T21:39:39.402Z,18.50
2023-01-15T21:42:41.087Z,17.30
2023-01-15T21:45:34.335Z,14.80
2023-01-15T21:48:00.745Z,16.60
2023-01-15T21:50:30.860Z,19.40
2023-01-15T21:52:58.585Z,18.20
2023-01-15T21:55:33.787Z,16.90
2023-01-15T21:58:08.657Z,18.90
2023-01-15T22:00:37.710Z,18.00
2023-01-15T22:03:08.791Z,20.20
2023-01-15T22:05:38.824Z,18.10
2023-01-15T22:08:06.299Z,20.10
2023-01-15T22:10:36.345Z,18.40
2023-01-15T22:13:04.850Z,20.00
2023-01-15T22:15:33.966Z,19.80
2023-01-15T22:18:11.727Z,20.00
2023-01-15T22:20:39.987Z,21.00
2023-01-15T22:23:08.181Z,19.10
2023-01-15T22:25:43.407Z,19.10
2023-01-15T22:28:16.569Z,17.20
2023-01-15T22:30:47.086Z,18.80
2023-01-15T22:33:15.291Z,17.70
2023-01-15T22:35:45.018Z,21.60
2023-01-15T22:41:16.541Z,20.90
2023-01-15T22:43:44.127Z,24.40
2023-01-15T22:46:12.753Z,20.70
2023-01-15T22:48:54.126Z,20.50
2023-01-15T22:51:23.928Z,21.10
2023-01-15T22:54:05.201Z,20.10
2023-01-15T22:56:33.776Z,20.50
2023-01-15T22:59:07.763Z,19.70
2023-01-15T23:01:38.752Z,21.80
2023-01-15T23:04:18.600Z,21.50
2023-01-15T23:06:51.425Z,22.10
2023-01-15T23:09:26.520Z,23.50
2023-01-15T23:12:20.157Z,21.10
2023-01-15T23:18:09.747Z,14.90
2023-01-15T23:21:12.561Z,14.10
2023-01-15T23:23:40.232Z,15.30
2023-01-15T23:26:23.203Z,16.80
2023-01-15T23:28:53.138Z,13.50
2023-01-15T23:31:42.172Z,13.60
2023-01-15T23:34:12.885Z,20.90
2023-01-15T23:36:46.215Z,12.30
2023-01-15T23:39:42.934Z,11.10
2023-01-15T23:42:29.780Z,13.50
2023-01-15T23:45:22.650Z,11.70
2023-01-15T23:47:53.346Z,12.30
2023-01-15T23:50:22.650Z,13.70
2023-01-15T23:52:57.257Z,11.50
2023-01-15T23:55:25.502Z,13.10
2023-01-15T23:57:55.013Z,11.10
